Time;durP1;ratioP1;P1;durP2;ratioP2;P2;SDS_P1;SDS_P2;PMS_P1;PMS_P2;Temp;Humidity;BMP_temperature;BMP_pressure;BME280_temperature;BME280_humidity;BME280_pressure;Samples;Min_cycle;Max_cycle;Signal;HPM_P1;HPM_P2
2022/06/26 00:02:15;;;;;;;8.60;7.80;;;;;;;;;;5070352;28;20511;-74
2022/06/26 00:04:44;;;;;;;8.03;7.43;;;;;;;;;;5072897;28;20945;-74
2022/06/26 00:07:10;;;;;;;8.30;7.50;;;;;;;;;;5059123;28;20965;-74
2022/06/26 00:09:36;;;;;;;7.63;6.90;;;;;;;;;;5059273;28;20427;-74
2022/06/26 00:12:03;;;;;;;8.68;7.28;;;;;;;;;;5058575;28;20409;-74
2022/06/26 00:14:29;;;;;;;8.02;7.22;;;;;;;;;;5059266;28;20946;-74
2022/06/26 00:16:55;;;;;;;7.88;7.28;;;;;;;;;;5057883;28;20428;-74
2022/06/26 00:19:22;;;;;;;8.25;7.55;;;;;;;;;;5058991;28;20454;-74
2022/06/26 00:21:50;;;;;;;8.05;7.45;;;;;;;;;;5056687;28;20427;-74
2022/06/26 00:24:17;;;;;;;8.77;8.00;;;;;;;;;;5057911;28;20445;-74
2022/06/26 00:26:43;;;;;;;8.15;7.45;;;;;;;;;;5057732;28;21337;-74
2022/06/26 00:29:10;;;;;;;9.07;8.27;;;;;;;;;;5058788;28;20436;-74
2022/06/26 00:31:36;;;;;;;6.87;6.37;;;;;;;;;;5058486;28;20432;-74
2022/06/26 00:34:02;;;;;;;8.70;7.97;;;;;;;;;;5058139;28;20434;-74
2022/06/26 00:36:29;;;;;;;8.18;7.40;;;;;;;;;;5058078;28;20433;-74
2022/06/26 00:38:57;;;;;;;8.00;7.30;;;;;;;;;;5056147;28;21987;-74
2022/06/26 00:41:23;;;;;;;8.15;7.55;;;;;;;;;;5059153;28;20544;-74
2022/06/26 00:43:49;;;;;;;11.30;7.13;;;;;;;;;;5057394;28;21127;-74
2022/06/26 00:46:16;;;;;;;8.30;7.50;;;;;;;;;;5058947;28;20423;-74
2022/06/26 00:48:42;;;;;;;8.70;7.90;;;;;;;;;;5058020;28;20419;-74
2022/06/26 00:51:08;;;;;;;9.30;8.50;;;;;;;;;;5058944;28;20446;-74
2022/06/26 00:53:35;;;;;;;8.40;7.65;;;;;;;;;;5057504;28;20435;-74
2022/06/26 00:56:03;;;;;;;8.10;7.50;;;;;;;;;;5056371;28;20433;-74
2022/06/26 00:58:29;;;;;;;8.30;7.70;;;;;;;;;;5057974;28;20417;-74
2022/06/26 01:00:55;;;;;;;8.63;7.97;;;;;;;;;;5059338;28;20816;-74
2022/06/26 01:03:22;;;;;;;9.20;8.40;;;;;;;;;;5058061;28;20460;-74
2022/06/26 01:05:48;;;;;;;9.00;8.20;;;;;;;;;;5057100;28;20429;-74
2022/06/26 01:08:14;;;;;;;8.95;8.25;;;;;;;;;;5058285;28;20788;-74
2022/06/26 01:10:41;;;;;;;8.50;7.85;;;;;;;;;;5058549;28;20919;-74
2022/06/26 01:13:08;;;;;;;9.00;8.20;;;;;;;;;;5057011;28;20425;-74
2022/06/26 01:15:35;;;;;;;9.18;8.35;;;;;;;;;;5057649;28;20429;-74
2022/06/26 01:18:01;;;;;;;10.10;8.27;;;;;;;;;;5058482;28;20424;-74
2022/06/26 01:20:28;;;;;;;8.32;7.63;;;;;;;;;;5058438;28;21179;-74
2022/06/26 01:22:59;;;;;;;8.70;8.00;;;;;;;;;;5058305;28;20428;-74
2022/06/26 01:25:26;;;;;;;8.98;8.07;;;;;;;;;;5056178;28;20438;-74
2022/06/26 01:27:52;;;;;;;8.90;8.10;;;;;;;;;;5056436;28;20421;-74
2022/06/26 01:30:18;;;;;;;8.88;8.07;;;;;;;;;;5057077;28;20425;-74
2022/06/26 01:32:45;;;;;;;9.68;8.68;;;;;;;;;;5056694;28;20778;-74
2022/06/26 01:35:11;;;;;;;9.20;8.50;;;;;;;;;;5057135;28;20428;-74
2022/06/26 01:37:37;;;;;;;9.07;8.30;;;;;;;;;;5054454;28;20432;-74
2022/06/26 01:40:06;;;;;;;9.90;9.00;;;;;;;;;;5059594;28;20430;-74
2022/06/26 01:42:32;;;;;;;9.65;8.85;;;;;;;;;;5060906;28;20423;-74
2022/06/26 01:44:58;;;;;;;9.20;8.40;;;;;;;;;;5061222;28;20906;-74
2022/06/26 01:47:25;;;;;;;9.43;8.65;;;;;;;;;;5061464;28;20409;-74
2022/06/26 01:49:51;;;;;;;9.90;9.20;;;;;;;;;;5060067;28;20434;-74
2022/06/26 01:52:17;;;;;;;9.80;9.00;;;;;;;;;;5062735;28;20777;-74
2022/06/26 01:54:44;;;;;;;10.10;9.20;;;;;;;;;;5060452;28;20437;-74
2022/06/26 01:57:11;;;;;;;10.00;9.10;;;;;;;;;;5060894;28;20427;-74
2022/06/26 01:59:38;;;;;;;9.10;8.30;;;;;;;;;;5061784;28;21019;-74
2022/06/26 02:02:04;;;;;;;9.98;9.02;;;;;;;;;;5059179;28;20396;-74
2022/06/26 02:04:30;;;;;;;10.02;9.30;;;;;;;;;;5061655;28;20431;-74
2022/06/26 02:06:57;;;;;;;10.10;9.30;;;;;;;;;;5059376;28;20494;-74
2022/06/26 02:14:54;;;;;;;9.40;8.70;;;;;;;;;;5018012;28;20410;-74
2022/06/26 02:17:21;;;;;;;9.93;9.23;;;;;;;;;;5059398;28;20458;-74
2022/06/26 02:19:47;;;;;;;10.27;9.48;;;;;;;;;;5060528;28;20437;-74
2022/06/26 02:22:13;;;;;;;10.60;9.70;;;;;;;;;;5060373;28;20412;-74
2022/06/26 02:24:41;;;;;;;9.63;8.93;;;;;;;;;;5060081;28;20459;-74
2022/06/26 02:27:08;;;;;;;9.95;9.15;;;;;;;;;;5059552;28;20413;-74
2022/06/26 02:29:34;;;;;;;10.80;9.80;;;;;;;;;;5061387;28;20427;-74
2022/06/26 02:32:02;;;;;;;9.90;9.10;;;;;;;;;;5060971;28;20443;-74
2022/06/26 02:34:28;;;;;;;10.52;9.63;;;;;;;;;;5059789;28;20435;-74
2022/06/26 02:36:54;;;;;;;9.50;8.70;;;;;;;;;;5059159;28;20428;-74
2022/06/26 02:39:21;;;;;;;10.60;9.70;;;;;;;;;;5060042;28;20459;-74
2022/06/26 02:41:47;;;;;;;10.30;9.40;;;;;;;;;;5059613;28;20425;-74
2022/06/26 02:44:15;;;;;;;10.67;9.77;;;;;;;;;;5059059;28;20815;-74
2022/06/26 02:46:41;;;;;;;10.20;9.50;;;;;;;;;;5058362;28;20457;-74
2022/06/26 02:49:09;;;;;;;11.13;9.95;;;;;;;;;;5058926;28;20436;-74
2022/06/26 02:51:35;;;;;;;10.57;9.77;;;;;;;;;;5058903;28;20433;-74
2022/06/26 02:54:02;;;;;;;11.13;10.18;;;;;;;;;;5059508;28;20517;-74
2022/06/26 02:56:28;;;;;;;10.90;10.00;;;;;;;;;;5058422;28;20424;-74
2022/06/26 02:58:54;;;;;;;10.18;9.38;;;;;;;;;;5059777;28;20793;-74
2022/06/26 03:01:21;;;;;;;11.35;10.45;;;;;;;;;;5059965;28;20430;-74
2022/06/26 03:03:47;;;;;;;10.90;10.00;;;;;;;;;;5058560;28;20459;-74
2022/06/26 03:06:15;;;;;;;10.55;9.75;;;;;;;;;;5058358;28;20435;-74
2022/06/26 03:08:41;;;;;;;10.40;9.60;;;;;;;;;;5059872;28;20425;-74
2022/06/26 03:11:07;;;;;;;11.63;10.63;;;;;;;;;;5058699;28;20436;-74
2022/06/26 03:13:34;;;;;;;11.23;10.38;;;;;;;;;;5058836;28;20433;-74
2022/06/26 03:16:00;;;;;;;10.95;10.05;;;;;;;;;;5060498;28;20796;-74
2022/06/26 03:18:26;;;;;;;11.43;10.52;;;;;;;;;;5058420;28;20439;-74
2022/06/26 03:20:52;;;;;;;11.20;10.30;;;;;;;;;;5058000;28;20424;-74
2022/06/26 03:23:20;;;;;;;11.88;10.98;;;;;;;;;;5059372;28;20413;-74
2022/06/26 03:25:46;;;;;;;11.45;10.55;;;;;;;;;;5058388;28;20919;-74
2022/06/26 03:28:13;;;;;;;11.95;10.98;;;;;;;;;;5059089;28;20442;-74
2022/06/26 03:30:39;;;;;;;11.63;10.73;;;;;;;;;;5057822;28;20454;-75
2022/06/26 03:33:05;;;;;;;11.10;10.20;;;;;;;;;;5060561;28;20433;-74
2022/06/26 03:35:32;;;;;;;11.65;10.65;;;;;;;;;;5059080;28;20432;-74
2022/06/26 03:37:58;;;;;;;11.88;10.88;;;;;;;;;;5057994;28;20423;-74
2022/06/26 03:40:26;;;;;;;11.70;10.80;;;;;;;;;;5058341;28;20780;-74
2022/06/26 03:42:52;;;;;;;11.68;10.68;;;;;;;;;;5048569;28;20423;-74
2022/06/26 03:45:18;;;;;;;11.50;10.50;;;;;;;;;;5058820;28;20431;-74
2022/06/26 03:47:44;;;;;;;10.82;10.02;;;;;;;;;;5051990;28;20791;-74
2022/06/26 03:50:11;;;;;;;11.23;10.32;;;;;;;;;;5047774;28;20424;-74
2022/06/26 03:52:37;;;;;;;11.27;10.23;;;;;;;;;;5047655;28;23401;-74
2022/06/26 03:55:04;;;;;;;11.13;10.23;;;;;;;;;;5047210;28;20440;-73
2022/06/26 03:57:32;;;;;;;10.10;9.30;;;;;;;;;;5047860;28;20434;-74
2022/06/26 03:59:58;;;;;;;11.35;10.40;;;;;;;;;;5056125;28;20431;-74
2022/06/26 04:02:25;;;;;;;12.80;11.50;;;;;;;;;;5049838;28;21249;-74
2022/06/26 04:04:51;;;;;;;12.48;11.48;;;;;;;;;;5047751;28;20455;-74
2022/06/26 04:07:18;;;;;;;10.50;9.70;;;;;;;;;;5047885;28;20946;-74
2022/06/26 04:09:44;;;;;;;11.60;10.60;;;;;;;;;;5048412;28;21187;-74
2022/06/26 04:12:10;;;;;;;11.10;10.10;;;;;;;;;;5056259;28;20432;-74
2022/06/26 04:14:38;;;;;;;10.98;10.07;;;;;;;;;;5050660;28;21173;-74
2022/06/26 04:17:05;;;;;;;12.10;10.90;;;;;;;;;;5053282;28;20911;-74
2022/06/26 04:19:31;;;;;;;10.75;9.95;;;;;;;;;;5049576;28;20943;-74
2022/06/26 04:21:57;;;;;;;11.48;10.48;;;;;;;;;;5048978;28;20924;-74
2022/06/26 04:24:24;;;;;;;11.30;10.20;;;;;;;;;;5048123;28;20973;-74
2022/06/26 04:26:50;;;;;;;13.05;11.70;;;;;;;;;;5046731;28;20442;-74
2022/06/26 04:29:16;;;;;;;11.83;10.83;;;;;;;;;;5054657;28;20447;-74
2022/06/26 04:31:44;;;;;;;11.73;10.60;;;;;;;;;;5051467;28;20448;-74
2022/06/26 04:34:10;;;;;;;12.20;11.10;;;;;;;;;;5052360;28;20435;-74
2022/06/26 04:36:36;;;;;;;10.47;9.37;;;;;;;;;;5050417;28;20440;-74
2022/06/26 04:39:03;;;;;;;11.38;10.27;;;;;;;;;;5049162;28;20419;-74
2022/06/26 04:41:34;;;;;;;10.65;9.65;;;;;;;;;;5053641;28;20433;-73
2022/06/26 04:44:00;;;;;;;11.05;10.00;;;;;;;;;;5056432;28;20518;-74
2022/06/26 04:46:27;;;;;;;16.23;9.97;;;;;;;;;;5058589;28;20224;-74
2022/06/26 04:48:54;;;;;;;11.73;10.60;;;;;;;;;;5057259;28;20485;-74
2022/06/26 04:51:21;;;;;;;11.03;9.10;;;;;;;;;;5058005;28;20434;-74
2022/06/26 04:53:47;;;;;;;12.03;9.37;;;;;;;;;;5056559;28;20449;-74
2022/06/26 04:56:13;;;;;;;10.00;9.10;;;;;;;;;;5058298;28;20509;-74
2022/06/26 04:58:40;;;;;;;9.10;8.20;;;;;;;;;;5059631;28;20847;-74
2022/06/26 05:01:06;;;;;;;12.13;8.80;;;;;;;;;;5059555;28;20464;-74
2022/06/26 05:03:32;;;;;;;10.10;9.10;;;;;;;;;;5059242;28;20452;-74
2022/06/26 05:06:00;;;;;;;9.50;8.10;;;;;;;;;;5059880;28;23675;-74
2022/06/26 05:08:26;;;;;;;9.23;8.37;;;;;;;;;;5058433;28;20839;-74
2022/06/26 05:10:52;;;;;;;9.47;8.60;;;;;;;;;;5057926;28;20451;-74
2022/06/26 05:13:19;;;;;;;8.77;7.97;;;;;;;;;;5057592;28;20424;-74
2022/06/26 05:15:46;;;;;;;10.00;9.02;;;;;;;;;;5062357;28;20427;-74
2022/06/26 05:18:13;;;;;;;12.13;8.70;;;;;;;;;;5061000;28;20561;-74
2022/06/26 05:20:39;;;;;;;10.00;8.10;;;;;;;;;;5060547;28;20427;-74
2022/06/26 05:23:07;;;;;;;9.40;8.70;;;;;;;;;;5062283;28;20521;-74
2022/06/26 05:25:34;;;;;;;10.65;8.77;;;;;;;;;;5061606;28;20498;-74
2022/06/26 05:28:00;;;;;;;9.93;9.02;;;;;;;;;;5059014;28;20435;-74
2022/06/26 05:30:26;;;;;;;9.73;8.82;;;;;;;;;;5060704;28;20427;-74
2022/06/26 05:32:53;;;;;;;9.27;8.43;;;;;;;;;;5059551;28;20510;-74
2022/06/26 05:35:19;;;;;;;11.18;8.98;;;;;;;;;;5061073;28;20423;-73
2022/06/26 05:37:45;;;;;;;9.70;8.80;;;;;;;;;;5061231;28;20878;-74
2022/06/26 05:40:13;;;;;;;9.67;8.87;;;;;;;;;;5061810;28;20851;-73
2022/06/26 05:42:40;;;;;;;11.40;10.52;;;;;;;;;;5059407;28;20426;-74
2022/06/26 05:45:06;;;;;;;11.53;10.33;;;;;;;;;;5056536;28;20500;-73
2022/06/26 05:47:33;;;;;;;11.00;9.90;;;;;;;;;;5062110;28;20433;-74
2022/06/26 05:49:59;;;;;;;12.18;11.18;;;;;;;;;;5063492;28;20431;-74
2022/06/26 05:52:26;;;;;;;10.95;9.85;;;;;;;;;;5058514;28;20430;-74
2022/06/26 05:54:52;;;;;;;11.43;10.43;;;;;;;;;;5058240;28;20427;-74
2022/06/26 05:57:20;;;;;;;12.55;11.35;;;;;;;;;;5077303;22;20406;-75
2022/06/26 05:59:47;;;;;;;12.80;11.50;;;;;;;;;;5058082;28;20461;-75
2022/06/26 06:02:13;;;;;;;12.50;11.30;;;;;;;;;;5060486;28;20489;-75
2022/06/26 06:04:40;;;;;;;13.00;11.90;;;;;;;;;;5061604;28;20421;-75
2022/06/26 06:07:06;;;;;;;13.32;12.13;;;;;;;;;;5060775;28;20416;-75
2022/06/26 06:09:32;;;;;;;12.18;10.98;;;;;;;;;;5057868;28;20436;-74
2022/06/26 06:11:59;;;;;;;15.57;12.00;;;;;;;;;;5059444;28;20450;-75
2022/06/26 06:14:27;;;;;;;14.10;12.38;;;;;;;;;;5061199;28;20429;-75
2022/06/26 06:16:53;;;;;;;15.00;13.50;;;;;;;;;;5059136;28;20434;-75
2022/06/26 06:19:19;;;;;;;16.38;14.77;;;;;;;;;;5061858;28;20436;-75
2022/06/26 06:21:46;;;;;;;17.48;15.82;;;;;;;;;;5059838;28;20439;-74
2022/06/26 06:24:12;;;;;;;19.33;17.52;;;;;;;;;;5061383;28;20430;-75
2022/06/26 06:26:38;;;;;;;18.43;16.63;;;;;;;;;;5056561;28;20427;-75
2022/06/26 06:29:05;;;;;;;19.73;18.00;;;;;;;;;;5059981;28;20412;-75
2022/06/26 06:31:32;;;;;;;20.50;18.70;;;;;;;;;;5061403;28;20436;-75
2022/06/26 06:33:59;;;;;;;20.80;19.08;;;;;;;;;;5058354;28;20911;-75
2022/06/26 06:36:25;;;;;;;20.80;18.90;;;;;;;;;;5058835;28;20962;-75
2022/06/26 06:38:51;;;;;;;21.03;19.13;;;;;;;;;;5059103;28;20431;-75
2022/06/26 06:41:18;;;;;;;21.65;19.70;;;;;;;;;;5059648;28;20439;-75
2022/06/26 06:43:46;;;;;;;20.60;18.67;;;;;;;;;;5058944;28;20425;-75
2022/06/26 06:46:13;;;;;;;20.03;18.23;;;;;;;;;;5059502;28;20428;-75
2022/06/26 06:48:41;;;;;;;22.23;19.92;;;;;;;;;;5059105;28;20427;-75
2022/06/26 06:51:08;;;;;;;22.13;20.23;;;;;;;;;;5059115;28;20416;-75
2022/06/26 06:53:34;;;;;;;21.33;19.42;;;;;;;;;;5059873;28;20523;-75
2022/06/26 06:56:00;;;;;;;23.08;20.83;;;;;;;;;;5057171;28;20425;-75
2022/06/26 06:58:27;;;;;;;24.33;21.90;;;;;;;;;;5057450;28;20424;-75
2022/06/26 07:00:53;;;;;;;23.90;21.40;;;;;;;;;;5059906;28;20437;-75
2022/06/26 07:03:21;;;;;;;23.40;21.20;;;;;;;;;;5059764;28;20414;-75
2022/06/26 07:05:48;;;;;;;23.48;21.30;;;;;;;;;;5059807;28;20921;-75
2022/06/26 07:08:15;;;;;;;23.20;20.90;;;;;;;;;;5058246;28;20425;-75
2022/06/26 07:10:41;;;;;;;23.63;21.63;;;;;;;;;;5057600;28;20436;-75
2022/06/26 07:13:10;;;;;;;24.85;22.45;;;;;;;;;;5057791;28;20417;-75
2022/06/26 07:15:36;;;;;;;23.48;21.30;;;;;;;;;;5059748;28;20469;-75
2022/06/26 07:18:03;;;;;;;24.77;22.27;;;;;;;;;;5059693;28;20417;-75
2022/06/26 07:20:29;;;;;;;26.13;23.53;;;;;;;;;;5060061;28;20431;-75
2022/06/26 07:22:56;;;;;;;26.17;23.87;;;;;;;;;;5059035;28;20420;-75
2022/06/26 07:25:23;;;;;;;23.50;21.30;;;;;;;;;;5059582;28;20923;-76
2022/06/26 07:27:50;;;;;;;23.90;21.60;;;;;;;;;;5058720;28;20428;-76
2022/06/26 07:30:16;;;;;;;25.38;22.75;;;;;;;;;;5056368;28;20510;-76
2022/06/26 07:32:44;;;;;;;25.40;22.73;;;;;;;;;;5058053;28;20435;-75
2022/06/26 07:35:10;;;;;;;24.77;22.33;;;;;;;;;;5058482;28;20932;-76
2022/06/26 07:37:37;;;;;;;24.03;21.63;;;;;;;;;;5057982;28;20421;-76
2022/06/26 07:40:05;;;;;;;25.08;22.55;;;;;;;;;;5058723;28;20429;-76
2022/06/26 07:42:31;;;;;;;22.90;20.80;;;;;;;;;;5059778;28;20444;-75
2022/06/26 07:44:58;;;;;;;24.90;22.70;;;;;;;;;;5057497;28;20431;-75
2022/06/26 07:47:24;;;;;;;25.75;23.10;;;;;;;;;;5059508;28;20773;-76
2022/06/26 07:49:50;;;;;;;24.10;21.85;;;;;;;;;;5058649;28;20484;-75
2022/06/26 07:52:17;;;;;;;23.92;21.73;;;;;;;;;;5058582;28;20783;-75
2022/06/26 07:54:43;;;;;;;23.95;21.55;;;;;;;;;;5056291;28;20431;-75
2022/06/26 07:57:11;;;;;;;22.80;20.70;;;;;;;;;;5057048;28;20397;-75
2022/06/26 07:59:37;;;;;;;24.35;22.05;;;;;;;;;;5059215;28;20441;-76
2022/06/26 08:02:04;;;;;;;24.17;21.90;;;;;;;;;;5055175;28;20488;-75
2022/06/26 08:04:31;;;;;;;23.77;21.50;;;;;;;;;;5060883;28;20451;-76
2022/06/26 08:06:57;;;;;;;24.05;21.75;;;;;;;;;;5057366;28;20505;-76
2022/06/26 08:09:24;;;;;;;23.47;21.37;;;;;;;;;;5059265;28;20440;-75
2022/06/26 08:11:50;;;;;;;20.77;18.67;;;;;;;;;;5055596;28;21403;-75
2022/06/26 08:14:17;;;;;;;19.93;18.03;;;;;;;;;;5057637;28;20433;-75
2022/06/26 08:16:44;;;;;;;18.75;17.23;;;;;;;;;;5058879;28;20433;-76
2022/06/26 08:19:10;;;;;;;15.77;14.32;;;;;;;;;;5058130;28;20427;-75
2022/06/26 08:24:20;;;;;;;12.63;11.63;;;;;;;;;;5057100;28;20913;-76
2022/06/26 08:26:46;;;;;;;11.70;10.60;;;;;;;;;;5056111;28;20427;-76
2022/06/26 08:29:13;;;;;;;11.10;10.10;;;;;;;;;;5054880;28;20437;-76
2022/06/26 08:31:40;;;;;;;10.23;9.32;;;;;;;;;;5057635;28;20437;-75
2022/06/26 08:34:07;;;;;;;10.43;9.40;;;;;;;;;;5057415;28;20435;-75
2022/06/26 08:36:33;;;;;;;10.30;9.40;;;;;;;;;;5058606;28;20439;-75
2022/06/26 08:39:00;;;;;;;9.10;8.20;;;;;;;;;;5057608;28;20415;-76
2022/06/26 08:41:28;;;;;;;9.85;8.85;;;;;;;;;;5057394;28;20514;-76
2022/06/26 08:43:58;;;;;;;8.02;7.22;;;;;;;;;;5058087;28;20459;-75
2022/06/26 08:46:25;;;;;;;8.18;7.20;;;;;;;;;;5056209;28;20425;-75
2022/06/26 08:48:54;;;;;;;7.75;7.07;;;;;;;;;;5056963;28;20428;-76
2022/06/26 08:51:20;;;;;;;6.07;5.57;;;;;;;;;;5057334;28;20436;-76
2022/06/26 08:53:46;;;;;;;5.53;5.03;;;;;;;;;;5057760;28;20430;-75
2022/06/26 08:56:13;;;;;;;6.40;5.90;;;;;;;;;;5055513;28;21145;-75
2022/06/26 08:58:39;;;;;;;6.70;5.10;;;;;;;;;;5057457;28;20420;-76
2022/06/26 09:01:07;;;;;;;5.13;4.72;;;;;;;;;;5056109;28;20427;-77
2022/06/26 09:03:34;;;;;;;5.10;4.70;;;;;;;;;;5056484;28;20425;-76
2022/06/26 09:06:02;;;;;;;5.43;4.60;;;;;;;;;;5057463;28;20434;-76
2022/06/26 09:08:30;;;;;;;5.60;4.60;;;;;;;;;;5058133;28;20469;-75
2022/06/26 09:10:57;;;;;;;4.05;3.75;;;;;;;;;;5057345;28;21288;-75
2022/06/26 09:13:23;;;;;;;4.60;4.17;;;;;;;;;;5058923;28;20432;-76
2022/06/26 09:15:50;;;;;;;3.97;3.67;;;;;;;;;;5056464;28;20427;-76
2022/06/26 09:18:17;;;;;;;4.47;4.10;;;;;;;;;;5055494;28;20875;-76
2022/06/26 09:20:54;;;;;;;4.07;3.60;;;;;;;;;;5058745;28;20427;-76
2022/06/26 09:23:22;;;;;;;4.60;4.20;;;;;;;;;;5055525;28;20419;-76
2022/06/26 09:25:48;;;;;;;3.67;3.38;;;;;;;;;;5055179;28;20427;-76
2022/06/26 09:28:15;;;;;;;4.38;3.50;;;;;;;;;;5054918;28;20945;-76
2022/06/26 09:30:52;;;;;;;3.53;3.20;;;;;;;;;;5055297;28;20439;-76
2022/06/26 09:33:19;;;;;;;3.20;2.85;;;;;;;;;;5056989;28;20424;-75
2022/06/26 09:35:45;;;;;;;2.80;2.60;;;;;;;;;;5056927;28;20919;-76
2022/06/26 09:38:15;;;;;;;2.95;2.75;;;;;;;;;;5056770;28;20423;-75
2022/06/26 09:40:47;;;;;;;2.55;2.35;;;;;;;;;;5058109;28;20427;-76
2022/06/26 09:43:15;;;;;;;3.10;2.30;;;;;;;;;;5055916;28;20454;-75
2022/06/26 09:45:42;;;;;;;4.00;2.10;;;;;;;;;;5054074;28;20435;-76
2022/06/26 09:48:09;;;;;;;3.93;2.30;;;;;;;;;;5057445;28;20414;-75
2022/06/26 09:50:36;;;;;;;2.90;2.40;;;;;;;;;;5058729;28;20791;-76
2022/06/26 09:53:03;;;;;;;2.60;2.40;;;;;;;;;;5056913;28;21005;-76
2022/06/26 09:55:30;;;;;;;2.28;2.08;;;;;;;;;;5057683;28;20787;-76
2022/06/26 09:57:57;;;;;;;2.67;2.15;;;;;;;;;;5056817;28;20427;-76
2022/06/26 10:00:24;;;;;;;2.30;2.10;;;;;;;;;;5056312;28;21099;-76
2022/06/26 10:08:20;;;;;;;2.42;2.22;;;;;;;;;;5057349;28;20418;-76
2022/06/26 10:10:48;;;;;;;2.95;2.65;;;;;;;;;;5060228;28;20435;-76
2022/06/26 10:13:16;;;;;;;2.90;2.50;;;;;;;;;;5059207;28;20426;-76
2022/06/26 10:15:48;;;;;;;2.90;2.70;;;;;;;;;;5060601;28;20429;-76
2022/06/26 10:18:21;;;;;;;2.67;2.40;;;;;;;;;;5059953;28;20526;-76
2022/06/26 10:20:48;;;;;;;2.75;2.55;;;;;;;;;;5061246;28;20425;-76
2022/06/26 10:23:29;;;;;;;2.20;2.00;;;;;;;;;;5059168;28;20429;-76
2022/06/26 10:25:55;;;;;;;3.20;2.50;;;;;;;;;;5058744;28;20454;-76
2022/06/26 10:28:23;;;;;;;3.17;2.70;;;;;;;;;;5060235;28;20427;-76
2022/06/26 10:30:49;;;;;;;2.60;2.40;;;;;;;;;;5060511;28;20425;-75
2022/06/26 10:33:17;;;;;;;5.60;3.00;;;;;;;;;;5059788;28;20414;-75
2022/06/26 10:35:46;;;;;;;3.75;3.00;;;;;;;;;;5059962;28;20436;-76
2022/06/26 10:38:20;;;;;;;3.20;2.80;;;;;;;;;;5058952;28;20419;-76
2022/06/26 10:43:41;;;;;;;3.22;2.92;;;;;;;;;;5058283;28;20438;-76
2022/06/26 10:46:07;;;;;;;3.70;3.40;;;;;;;;;;5059759;28;20431;-76
2022/06/26 10:48:33;;;;;;;4.57;3.47;;;;;;;;;;5059175;28;20428;-76
2022/06/26 10:51:01;;;;;;;4.03;3.25;;;;;;;;;;5060227;28;20418;-76
2022/06/26 10:53:29;;;;;;;3.78;3.40;;;;;;;;;;5058343;28;20427;-76
2022/06/26 10:55:57;;;;;;;3.00;2.80;;;;;;;;;;5059849;28;20431;-76
2022/06/26 10:58:25;;;;;;;5.07;3.03;;;;;;;;;;5058635;28;20493;-76
2022/06/26 11:00:53;;;;;;;3.20;2.90;;;;;;;;;;5059933;28;20541;-76
2022/06/26 11:03:20;;;;;;;4.90;3.17;;;;;;;;;;5060979;28;20435;-76
2022/06/26 11:05:50;;;;;;;2.75;2.50;;;;;;;;;;5059968;28;20985;-76
2022/06/26 11:08:22;;;;;;;2.78;2.58;;;;;;;;;;5058213;28;20426;-76
2022/06/26 11:10:48;;;;;;;2.92;2.65;;;;;;;;;;5055215;28;20436;-76
2022/06/26 11:13:15;;;;;;;3.33;3.03;;;;;;;;;;5058983;28;20456;-76
2022/06/26 11:15:41;;;;;;;3.30;2.97;;;;;;;;;;5058249;28;20439;-76
2022/06/26 11:18:09;;;;;;;3.00;2.70;;;;;;;;;;5058182;28;20423;-75
2022/06/26 11:20:47;;;;;;;2.97;2.78;;;;;;;;;;5059363;28;20427;-76
2022/06/26 11:23:15;;;;;;;3.20;2.90;;;;;;;;;;5059852;28;20430;-76
2022/06/26 11:25:42;;;;;;;3.20;2.88;;;;;;;;;;5059106;28;20435;-75
2022/06/26 11:28:09;;;;;;;3.80;2.97;;;;;;;;;;5055559;28;20429;-76
2022/06/26 11:30:35;;;;;;;3.47;3.17;;;;;;;;;;5060062;28;20437;-75
2022/06/26 11:33:02;;;;;;;2.90;2.70;;;;;;;;;;5060616;28;20804;-76
2022/06/26 11:35:29;;;;;;;3.35;3.08;;;;;;;;;;5058674;28;20423;-77
2022/06/26 11:37:56;;;;;;;3.53;3.20;;;;;;;;;;5057652;28;20420;-76
2022/06/26 11:40:23;;;;;;;3.88;3.30;;;;;;;;;;5059368;28;20427;-76
2022/06/26 11:42:54;;;;;;;3.10;2.90;;;;;;;;;;5058998;28;20419;-76
2022/06/26 11:45:21;;;;;;;3.28;3.08;;;;;;;;;;5057491;28;20438;-75
2022/06/26 11:47:47;;;;;;;3.80;3.50;;;;;;;;;;5057474;28;20424;-76
2022/06/26 11:50:18;;;;;;;3.60;3.30;;;;;;;;;;5059126;28;20430;-76
2022/06/26 11:52:45;;;;;;;3.40;3.20;;;;;;;;;;5056960;28;20438;-76
2022/06/26 11:55:12;;;;;;;3.58;3.20;;;;;;;;;;5054184;28;20769;-75
2022/06/26 11:57:38;;;;;;;3.60;3.30;;;;;;;;;;5085861;22;20411;-76
2022/06/26 12:00:06;;;;;;;4.10;3.30;;;;;;;;;;5072936;28;20426;-76
2022/06/26 12:02:32;;;;;;;4.88;4.00;;;;;;;;;;5070782;28;20970;-76
2022/06/26 12:04:59;;;;;;;3.83;3.53;;;;;;;;;;5073634;28;20428;-76
2022/06/26 12:07:26;;;;;;;3.60;3.30;;;;;;;;;;5076261;28;20414;-76
2022/06/26 12:09:54;;;;;;;4.13;3.70;;;;;;;;;;5078861;28;20418;-75
2022/06/26 12:12:20;;;;;;;3.20;2.90;;;;;;;;;;5077562;28;20418;-76
2022/06/26 12:14:50;;;;;;;3.90;3.60;;;;;;;;;;5074160;28;20943;-76
2022/06/26 12:17:21;;;;;;;4.03;3.63;;;;;;;;;;5072519;28;20434;-76
2022/06/26 12:19:47;;;;;;;3.80;3.50;;;;;;;;;;5075980;28;20427;-76
2022/06/26 12:22:13;;;;;;;3.78;3.38;;;;;;;;;;5073846;28;20911;-76
2022/06/26 12:24:50;;;;;;;3.90;3.60;;;;;;;;;;5077315;28;20419;-76
2022/06/26 12:27:17;;;;;;;3.38;3.08;;;;;;;;;;5075594;28;20434;-76
2022/06/26 12:29:44;;;;;;;3.70;3.00;;;;;;;;;;5075766;28;20432;-76
2022/06/26 12:32:10;;;;;;;3.00;2.80;;;;;;;;;;5075650;28;20775;-76
2022/06/26 12:34:36;;;;;;;3.40;3.08;;;;;;;;;;5075216;28;20426;-76
2022/06/26 12:37:03;;;;;;;3.60;3.30;;;;;;;;;;5076924;28;20405;-76
2022/06/26 12:39:29;;;;;;;3.22;2.90;;;;;;;;;;5070619;28;20451;-76
2022/06/26 12:41:55;;;;;;;3.72;3.42;;;;;;;;;;5076907;28;20790;-76
2022/06/26 12:44:23;;;;;;;3.67;3.38;;;;;;;;;;5077871;28;20409;-76
2022/06/26 12:46:49;;;;;;;4.20;3.90;;;;;;;;;;5077794;28;20416;-76
2022/06/26 12:49:16;;;;;;;3.60;3.30;;;;;;;;;;5076154;28;20435;-76
2022/06/26 12:51:42;;;;;;;4.10;3.20;;;;;;;;;;5077158;28;20413;-76
2022/06/26 12:54:08;;;;;;;3.40;3.10;;;;;;;;;;5077628;28;20424;-76
2022/06/26 12:56:35;;;;;;;3.55;3.00;;;;;;;;;;5072752;28;20472;-75
2022/06/26 12:59:01;;;;;;;2.80;2.60;;;;;;;;;;5075457;28;20435;-75
2022/06/26 13:01:29;;;;;;;3.17;2.90;;;;;;;;;;5076001;28;20773;-76
2022/06/26 13:03:55;;;;;;;3.30;3.00;;;;;;;;;;5075659;28;20795;-76
2022/06/26 13:06:21;;;;;;;3.03;2.83;;;;;;;;;;5077516;28;20403;-76
2022/06/26 13:08:47;;;;;;;4.65;3.03;;;;;;;;;;5075937;28;20429;-76
2022/06/26 13:11:23;;;;;;;3.00;2.53;;;;;;;;;;5077319;28;20411;-76
2022/06/26 13:13:50;;;;;;;2.60;2.40;;;;;;;;;;5070797;28;20430;-76
2022/06/26 13:16:16;;;;;;;3.30;3.00;;;;;;;;;;5076697;28;20477;-75
2022/06/26 13:18:44;;;;;;;3.33;3.13;;;;;;;;;;5074848;28;20419;-75
2022/06/26 13:21:10;;;;;;;3.78;3.20;;;;;;;;;;5074307;28;20432;-74
2022/06/26 13:23:37;;;;;;;3.20;2.90;;;;;;;;;;5076934;28;20418;-75
2022/06/26 13:26:03;;;;;;;3.33;3.10;;;;;;;;;;5075586;28;20418;-75
2022/06/26 13:28:30;;;;;;;3.50;2.70;;;;;;;;;;5076610;28;20835;-75
2022/06/26 13:30:56;;;;;;;3.20;2.90;;;;;;;;;;5073359;28;20794;-75
2022/06/26 13:33:23;;;;;;;2.97;2.78;;;;;;;;;;5076541;28;20422;-75
2022/06/26 13:35:51;;;;;;;3.15;2.85;;;;;;;;;;5077875;28;20506;-75
2022/06/26 13:38:17;;;;;;;2.53;2.33;;;;;;;;;;5080130;28;20448;-75
2022/06/26 13:40:43;;;;;;;3.00;2.80;;;;;;;;;;5081117;28;20410;-75
2022/06/26 13:43:10;;;;;;;2.90;2.70;;;;;;;;;;5078019;28;20431;-74
2022/06/26 13:45:36;;;;;;;2.90;2.60;;;;;;;;;;5081227;28;20413;-74
2022/06/26 13:48:02;;;;;;;2.60;2.40;;;;;;;;;;5078622;28;20799;-75
2022/06/26 13:50:29;;;;;;;2.72;2.50;;;;;;;;;;5078099;28;20438;-74
2022/06/26 13:52:57;;;;;;;2.95;2.65;;;;;;;;;;5076556;28;20929;-74
2022/06/26 13:55:24;;;;;;;3.00;2.80;;;;;;;;;;5078109;28;20426;-75
2022/06/26 13:57:50;;;;;;;2.90;2.70;;;;;;;;;;5077012;28;20430;-75
2022/06/26 14:00:16;;;;;;;4.15;2.70;;;;;;;;;;5081065;28;20408;-74
2022/06/26 14:02:43;;;;;;;2.80;2.60;;;;;;;;;;5080407;28;20420;-75
2022/06/26 14:05:09;;;;;;;3.70;2.40;;;;;;;;;;5078139;28;20799;-75
2022/06/26 14:07:35;;;;;;;3.75;3.00;;;;;;;;;;5080827;28;20897;-74
2022/06/26 14:10:03;;;;;;;2.95;2.65;;;;;;;;;;5078051;28;20442;-74
2022/06/26 14:12:30;;;;;;;2.65;2.45;;;;;;;;;;5078589;28;20418;-74
2022/06/26 14:14:56;;;;;;;2.47;2.28;;;;;;;;;;5079723;28;20420;-74
2022/06/26 14:17:22;;;;;;;3.70;2.60;;;;;;;;;;5077742;28;20903;-74
2022/06/26 14:19:49;;;;;;;3.00;2.70;;;;;;;;;;5079091;28;20439;-74
2022/06/26 14:27:44;;;;;;;3.90;2.70;;;;;;;;;;5077539;28;20429;-75
2022/06/26 14:30:11;;;;;;;2.70;2.50;;;;;;;;;;5079868;28;20410;-75
2022/06/26 14:32:37;;;;;;;2.83;2.60;;;;;;;;;;5077441;28;20414;-75
2022/06/26 14:35:04;;;;;;;3.05;2.85;;;;;;;;;;5077940;28;20431;-75
2022/06/26 14:37:30;;;;;;;3.00;2.70;;;;;;;;;;5079496;28;20410;-75
2022/06/26 14:39:56;;;;;;;2.95;2.75;;;;;;;;;;5079306;28;20420;-75
2022/06/26 14:42:23;;;;;;;3.03;2.83;;;;;;;;;;5075067;28;20445;-75
2022/06/26 14:44:50;;;;;;;2.90;2.70;;;;;;;;;;5079539;28;20421;-75
2022/06/26 14:47:17;;;;;;;2.80;2.60;;;;;;;;;;5077114;28;20407;-74
2022/06/26 14:49:43;;;;;;;2.50;2.30;;;;;;;;;;5079451;28;20416;-75
2022/06/26 14:52:09;;;;;;;2.80;2.60;;;;;;;;;;5076269;28;20419;-75
2022/06/26 14:54:36;;;;;;;3.23;2.60;;;;;;;;;;5079651;28;20413;-75